sensor_id;sensor_type;location;lat;lon;timestamp;pressure;altitude;pressure_sealevel;temperature;humidity
27712;BME280;2377;51.734;8.950;2023-02-16T00:01:56;98654.34;;;2.06;85.43
27712;BME280;2377;51.734;8.950;2023-02-16T00:04:27;98651.84;;;2.06;86.17
27712;BME280;2377;51.734;8.950;2023-02-16T00:06:56;98651.84;;;2.06;85.77
27712;BME280;2377;51.734;8.950;2023-02-16T00:09:23;98649.59;;;2.03;86.38
27712;BME280;2377;51.734;8.950;2023-02-16T00:11:52;98644.56;;;2.03;85.86
27712;BME280;2377;51.734;8.950;2023-02-16T00:14:38;98644.81;;;2.00;86.02
27712;BME280;2377;51.734;8.950;2023-02-16T00:17:09;98639.13;;;1.98;85.57
27712;BME280;2377;51.734;8.950;2023-02-16T00:19:39;98628.38;;;1.96;86.40
27712;BME280;2377;51.734;8.950;2023-02-16T00:22:08;98630.91;;;1.96;86.44
27712;BME280;2377;51.734;8.950;2023-02-16T00:24:35;98637.53;;;1.97;87.29
27712;BME280;2377;51.734;8.950;2023-02-16T00:27:08;98628.09;;;1.99;87.38
27712;BME280;2377;51.734;8.950;2023-02-16T00:29:38;98629.06;;;1.98;87.19
27712;BME280;2377;51.734;8.950;2023-02-16T00:32:05;98616.44;;;1.98;87.04
27712;BME280;2377;51.734;8.950;2023-02-16T00:34:35;98618.69;;;2.01;86.57
27712;BME280;2377;51.734;8.950;2023-02-16T00:37:07;98619.75;;;1.98;87.30
27712;BME280;2377;51.734;8.950;2023-02-16T00:39:36;98618.31;;;1.96;86.66
27712;BME280;2377;51.734;8.950;2023-02-16T00:42:06;98616.97;;;1.92;86.50
27712;BME280;2377;51.734;8.950;2023-02-16T00:44:42;98612.88;;;1.90;86.55
27712;BME280;2377;51.734;8.950;2023-02-16T00:47:18;98614.47;;;1.92;87.78
27712;BME280;2377;51.734;8.950;2023-02-16T00:49:46;98623.59;;;1.93;87.24
27712;BME280;2377;51.734;8.950;2023-02-16T00:52:30;98613.53;;;1.93;87.18
27712;BME280;2377;51.734;8.950;2023-02-16T00:54:59;98616.03;;;1.93;87.33
27712;BME280;2377;51.734;8.950;2023-02-16T00:57:31;98606.63;;;1.95;87.58
27712;BME280;2377;51.734;8.950;2023-02-16T01:00:06;98597.97;;;1.97;87.28
27712;BME280;2377;51.734;8.950;2023-02-16T01:02:34;98603.84;;;1.98;87.12
27712;BME280;2377;51.734;8.950;2023-02-16T01:05:02;98598.53;;;2.01;87.66
27712;BME280;2377;51.734;8.950;2023-02-16T01:07:30;98591.63;;;2.03;88.10
27712;BME280;2377;51.734;8.950;2023-02-16T01:10:16;98595.72;;;2.04;88.84
27712;BME280;2377;51.734;8.950;2023-02-16T01:13:16;98600.91;;;2.02;88.86
27712;BME280;2377;51.734;8.950;2023-02-16T01:15:44;98608.47;;;2.02;88.60
27712;BME280;2377;51.734;8.950;2023-02-16T01:18:12;98602.09;;;1.98;89.20
27712;BME280;2377;51.734;8.950;2023-02-16T01:20:40;98604.34;;;2.01;88.95
27712;BME280;2377;51.734;8.950;2023-02-16T01:23:08;98605.94;;;2.02;88.65
27712;BME280;2377;51.734;8.950;2023-02-16T01:25:36;98599.03;;;2.04;88.84
27712;BME280;2377;51.734;8.950;2023-02-16T01:28:17;98597.56;;;2.02;89.45
27712;BME280;2377;51.734;8.950;2023-02-16T01:30:45;98599.31;;;2.01;88.94
27712;BME280;2377;51.734;8.950;2023-02-16T01:33:12;98598.66;;;1.99;88.47
27712;BME280;2377;51.734;8.950;2023-02-16T01:35:40;98593.75;;;1.98;89.19
27712;BME280;2377;51.734;8.950;2023-02-16T01:38:15;98598.53;;;2.01;90.31
27712;BME280;2377;51.734;8.950;2023-02-16T01:40:50;98597.72;;;2.00;89.92
27712;BME280;2377;51.734;8.950;2023-02-16T01:43:25;98597.19;;;1.97;89.46
27712;BME280;2377;51.734;8.950;2023-02-16T01:46:00;98603.19;;;1.96;88.71
27712;BME280;2377;51.734;8.950;2023-02-16T01:48:30;98599.06;;;1.95;88.77
27712;BME280;2377;51.734;8.950;2023-02-16T01:51:05;98603.44;;;1.93;88.85
27712;BME280;2377;51.734;8.950;2023-02-16T01:53:41;98600.53;;;1.87;88.56
27712;BME280;2377;51.734;8.950;2023-02-16T01:56:30;98595.91;;;1.83;88.56
27712;BME280;2377;51.734;8.950;2023-02-16T01:59:04;98595.41;;;1.79;88.68
27712;BME280;2377;51.734;8.950;2023-02-16T02:01:45;98583.88;;;1.77;88.43
27712;BME280;2377;51.734;8.950;2023-02-16T02:04:26;98589.16;;;1.74;89.09
27712;BME280;2377;51.734;8.950;2023-02-16T02:07:22;98582.66;;;1.71;88.12
27712;BME280;2377;51.734;8.950;2023-02-16T02:10:02;98585.59;;;1.66;88.21
27712;BME280;2377;51.734;8.950;2023-02-16T02:12:39;98595.94;;;1.63;88.41
27712;BME280;2377;51.734;8.950;2023-02-16T02:15:09;98586.94;;;1.61;87.91
27712;BME280;2377;51.734;8.950;2023-02-16T02:17:37;98588.81;;;1.59;87.99
27712;BME280;2377;51.734;8.950;2023-02-16T02:20:15;98577.16;;;1.58;87.47
27712;BME280;2377;51.734;8.950;2023-02-16T02:23:21;98576.59;;;1.54;88.48
27712;BME280;2377;51.734;8.950;2023-02-16T02:27:03;98577.94;;;1.48;88.14
27712;BME280;2377;51.734;8.950;2023-02-16T02:30:15;98571.72;;;1.43;88.65
27712;BME280;2377;51.734;8.950;2023-02-16T02:33:01;98573.44;;;1.42;88.24
27712;BME280;2377;51.734;8.950;2023-02-16T02:35:46;98567.75;;;1.40;88.75
27712;BME280;2377;51.734;8.950;2023-02-16T02:38:24;98577.81;;;1.40;88.18
27712;BME280;2377;51.734;8.950;2023-02-16T02:40:58;98568.69;;;1.39;88.22
27712;BME280;2377;51.734;8.950;2023-02-16T02:43:35;98571.34;;;1.38;88.09
27712;BME280;2377;51.734;8.950;2023-02-16T02:46:09;98562.31;;;1.35;87.66
27712;BME280;2377;51.734;8.950;2023-02-16T02:48:41;98566.81;;;1.32;88.33
27712;BME280;2377;51.734;8.950;2023-02-16T02:51:11;98560.19;;;1.31;88.26
27712;BME280;2377;51.734;8.950;2023-02-16T02:53:57;98569.09;;;1.25;87.85
27712;BME280;2377;51.734;8.950;2023-02-16T02:56:48;98555.97;;;1.21;88.02
27712;BME280;2377;51.734;8.950;2023-02-16T02:59:47;98565.78;;;1.15;87.72
27712;BME280;2377;51.734;8.950;2023-02-16T03:02:37;98563.25;;;1.15;88.31
27712;BME280;2377;51.734;8.950;2023-02-16T03:05:08;98563.25;;;1.15;88.66
27712;BME280;2377;51.734;8.950;2023-02-16T03:07:38;98565.25;;;1.11;88.32
27712;BME280;2377;51.734;8.950;2023-02-16T03:10:19;98567.78;;;1.11;88.40
27712;BME280;2377;51.734;8.950;2023-02-16T03:13:11;98566.84;;;1.12;88.58
27712;BME280;2377;51.734;8.950;2023-02-16T03:15:41;98557.84;;;1.10;88.57
27712;BME280;2377;51.734;8.950;2023-02-16T03:18:12;98563.13;;;1.07;88.74
27712;BME280;2377;51.734;8.950;2023-02-16T03:21:00;98566.56;;;1.05;88.19
27712;BME280;2377;51.734;8.950;2023-02-16T03:23:48;98560.63;;;0.97;87.49
27712;BME280;2377;51.734;8.950;2023-02-16T03:26:35;98565.78;;;0.95;88.26
27712;BME280;2377;51.734;8.950;2023-02-16T03:29:22;98566.56;;;0.96;88.49
27712;BME280;2377;51.734;8.950;2023-02-16T03:31:54;98571.75;;;0.94;88.09
27712;BME280;2377;51.734;8.950;2023-02-16T03:34:22;98568.28;;;0.95;88.29
27712;BME280;2377;51.734;8.950;2023-02-16T03:36:54;98569.47;;;0.91;87.91
27712;BME280;2377;51.734;8.950;2023-02-16T03:39:25;98568.41;;;0.84;88.29
27712;BME280;2377;51.734;8.950;2023-02-16T03:41:55;98564.31;;;0.83;87.33
27712;BME280;2377;51.734;8.950;2023-02-16T03:44:23;98562.72;;;0.82;87.92
27712;BME280;2377;51.734;8.950;2023-02-16T03:46:51;98568.97;;;0.78;88.01
27712;BME280;2377;51.734;8.950;2023-02-16T03:49:20;98562.59;;;0.74;87.66
27712;BME280;2377;51.734;8.950;2023-02-16T03:51:47;98569.19;;;0.75;87.22
27712;BME280;2377;51.734;8.950;2023-02-16T03:54:14;98574.50;;;0.72;87.48
27712;BME280;2377;51.734;8.950;2023-02-16T03:56:41;98573.72;;;0.71;87.97
27712;BME280;2377;51.734;8.950;2023-02-16T03:59:08;98567.88;;;0.71;87.77
27712;BME280;2377;51.734;8.950;2023-02-16T04:01:35;98570.41;;;0.71;87.46
27712;BME280;2377;51.734;8.950;2023-02-16T04:04:04;98564.72;;;0.69;87.26
27712;BME280;2377;51.734;8.950;2023-02-16T04:06:31;98560.59;;;0.68;87.62
27712;BME280;2377;51.734;8.950;2023-02-16T04:08:58;98562.56;;;0.64;87.43
27712;BME280;2377;51.734;8.950;2023-02-16T04:11:25;98556.75;;;0.63;87.94
27712;BME280;2377;51.734;8.950;2023-02-16T04:14:10;98562.56;;;0.64;87.80
27712;BME280;2377;51.734;8.950;2023-02-16T04:16:37;98563.63;;;0.61;87.95
27712;BME280;2377;51.734;8.950;2023-02-16T04:19:05;98561.78;;;0.63;87.57
27712;BME280;2377;51.734;8.950;2023-02-16T04:21:32;98559.66;;;0.59;87.18
27712;BME280;2377;51.734;8.950;2023-02-16T04:23:59;98555.81;;;0.55;87.84
27712;BME280;2377;51.734;8.950;2023-02-16T04:26:27;98550.91;;;0.53;88.01
27712;BME280;2377;51.734;8.950;2023-02-16T04:28:54;98559.38;;;0.52;88.24
27712;BME280;2377;51.734;8.950;2023-02-16T04:31:21;98553.41;;;0.53;88.08
27712;BME280;2377;51.734;8.950;2023-02-16T04:33:48;98564.13;;;0.55;87.83
27712;BME280;2377;51.734;8.950;2023-02-16T04:36:16;98562.56;;;0.54;87.39
27712;BME280;2377;51.734;8.950;2023-02-16T04:38:43;98561.06;;;0.52;87.18
27712;BME280;2377;51.734;8.950;2023-02-16T04:41:10;98562.81;;;0.51;87.15
27712;BME280;2377;51.734;8.950;2023-02-16T04:43:37;98564.41;;;0.52;87.78
27712;BME280;2377;51.734;8.950;2023-02-16T04:46:04;98562.81;;;0.51;87.50
27712;BME280;2377;51.734;8.950;2023-02-16T04:48:32;98554.59;;;0.49;87.49
27712;BME280;2377;51.734;8.950;2023-02-16T04:50:59;98555.41;;;0.50;87.17
27712;BME280;2377;51.734;8.950;2023-02-16T04:53:27;98561.50;;;0.47;87.64
27712;BME280;2377;51.734;8.950;2023-02-16T04:55:54;98554.44;;;0.41;87.52
27712;BME280;2377;51.734;8.950;2023-02-16T04:58:21;98555.63;;;0.37;87.40
27712;BME280;2377;51.734;8.950;2023-02-16T05:00:48;98549.81;;;0.36;87.19
27712;BME280;2377;51.734;8.950;2023-02-16T05:03:15;98546.34;;;0.37;87.50
27712;BME280;2377;51.734;8.950;2023-02-16T05:05:43;98547.28;;;0.36;87.69
27712;BME280;2377;51.734;8.950;2023-02-16T05:08:13;98540.69;;;0.35;87.57
27712;BME280;2377;51.734;8.950;2023-02-16T05:10:42;98549.03;;;0.36;87.57
27712;BME280;2377;51.734;8.950;2023-02-16T05:13:09;98556.56;;;0.36;87.59
27712;BME280;2377;51.734;8.950;2023-02-16T05:15:55;98551.66;;;0.34;87.35
27712;BME280;2377;51.734;8.950;2023-02-16T05:18:22;98547.69;;;0.32;87.30
27712;BME280;2377;51.734;8.950;2023-02-16T05:20:49;98546.09;;;0.31;87.43
27712;BME280;2377;51.734;8.950;2023-02-16T05:23:48;98546.59;;;0.25;87.28
27712;BME280;2377;51.734;8.950;2023-02-16T05:26:17;98544.75;;;0.27;87.91
27712;BME280;2377;51.734;8.950;2023-02-16T05:28:44;98543.53;;;0.21;87.17
27712;BME280;2377;51.734;8.950;2023-02-16T05:31:11;98545.13;;;0.22;87.51
27712;BME280;2377;51.734;8.950;2023-02-16T05:33:38;98540.00;;;0.24;87.53
27712;BME280;2377;51.734;8.950;2023-02-16T05:36:06;98538.38;;;0.23;87.27
27712;BME280;2377;51.734;8.950;2023-02-16T05:38:33;98542.75;;;0.20;87.01
27712;BME280;2377;51.734;8.950;2023-02-16T05:41:00;98543.69;;;0.19;87.13
27712;BME280;2377;51.734;8.950;2023-02-16T05:43:28;98541.56;;;0.15;86.83
27712;BME280;2377;51.734;8.950;2023-02-16T05:45:55;98543.50;;;0.11;87.13
27712;BME280;2377;51.734;8.950;2023-02-16T05:48:23;98544.19;;;0.13;87.00
27712;BME280;2377;51.734;8.950;2023-02-16T05:50:53;98541.56;;;0.15;87.53
27712;BME280;2377;51.734;8.950;2023-02-16T05:53:20;98544.19;;;0.13;87.59
27712;BME280;2377;51.734;8.950;2023-02-16T05:55:47;98542.47;;;0.14;87.40
27712;BME280;2377;51.734;8.950;2023-02-16T05:58:14;98550.00;;;0.14;87.55
27712;BME280;2377;51.734;8.950;2023-02-16T06:00:42;98549.88;;;0.15;87.44
27712;BME280;2377;51.734;8.950;2023-02-16T06:03:09;98555.84;;;0.14;87.73
27712;BME280;2377;51.734;8.950;2023-02-16T06:05:36;98555.69;;;0.16;87.08
27712;BME280;2377;51.734;8.950;2023-02-16T06:08:04;98553.75;;;0.19;87.03
27712;BME280;2377;51.734;8.950;2023-02-16T06:10:31;98553.44;;;0.13;87.08
27712;BME280;2377;51.734;8.950;2023-02-16T06:12:58;98546.84;;;0.12;87.29
27712;BME280;2377;51.734;8.950;2023-02-16T06:15:25;98546.97;;;0.10;87.46
27712;BME280;2377;51.734;8.950;2023-02-16T06:17:53;98546.28;;;0.08;87.18
27712;BME280;2377;51.734;8.950;2023-02-16T06:20:20;98548.13;;;0.06;86.90
27712;BME280;2377;51.734;8.950;2023-02-16T06:22:47;98544.94;;;0.04;87.13
27712;BME280;2377;51.734;8.950;2023-02-16T06:25:15;98548.13;;;0.06;87.25
27712;BME280;2377;51.734;8.950;2023-02-16T06:27:45;98540.59;;;0.06;87.20
27712;BME280;2377;51.734;8.950;2023-02-16T06:30:12;98543.09;;;0.06;86.99
27712;BME280;2377;51.734;8.950;2023-02-16T06:32:39;98538.06;;;0.06;87.16
27712;BME280;2377;51.734;8.950;2023-02-16T06:35:08;98541.53;;;0.05;87.02
27712;BME280;2377;51.734;8.950;2023-02-16T06:37:35;98537.28;;;0.06;86.71
27712;BME280;2377;51.734;8.950;2023-02-16T06:40:03;98536.50;;;0.05;86.74
27712;BME280;2377;51.734;8.950;2023-02-16T06:42:30;98542.31;;;0.06;86.92
27712;BME280;2377;51.734;8.950;2023-02-16T06:45:00;98545.59;;;0.06;87.06
27712;BME280;2377;51.734;8.950;2023-02-16T06:47:27;98560.56;;;0.08;87.32
27712;BME280;2377;51.734;8.950;2023-02-16T06:49:55;98566.38;;;0.08;87.17
27712;BME280;2377;51.734;8.950;2023-02-16T06:52:23;98561.34;;;0.08;87.08
27712;BME280;2377;51.734;8.950;2023-02-16T06:54:50;98561.34;;;0.08;87.24
27712;BME280;2377;51.734;8.950;2023-02-16T06:57:17;98560.44;;;0.09;86.84
27712;BME280;2377;51.734;8.950;2023-02-16T06:59:44;98558.72;;;0.10;87.23
27712;BME280;2377;51.734;8.950;2023-02-16T07:02:11;98560.19;;;0.12;87.71
27712;BME280;2377;51.734;8.950;2023-02-16T07:04:38;98564.03;;;0.16;87.19
27712;BME280;2377;51.734;8.950;2023-02-16T07:07:05;98566.97;;;0.22;87.76
27712;BME280;2377;51.734;8.950;2023-02-16T07:09:36;98563.81;;;0.29;87.82
27712;BME280;2377;51.734;8.950;2023-02-16T07:12:04;98569.38;;;0.33;87.70
27712;BME280;2377;51.734;8.950;2023-02-16T07:14:31;98567.28;;;0.38;87.69
27712;BME280;2377;51.734;8.950;2023-02-16T07:16:59;98551.00;;;0.42;87.41
27712;BME280;2377;51.734;8.950;2023-02-16T07:19:29;98566.63;;;0.46;87.70
27712;BME280;2377;51.734;8.950;2023-02-16T07:21:57;98566.25;;;0.50;87.82
27712;BME280;2377;51.734;8.950;2023-02-16T07:24:24;98558.56;;;0.52;88.22
27712;BME280;2377;51.734;8.950;2023-02-16T07:26:54;98554.09;;;0.55;87.97
27712;BME280;2377;51.734;8.950;2023-02-16T07:29:22;98557.28;;;0.57;87.74
27712;BME280;2377;51.734;8.950;2023-02-16T07:31:49;98552.75;;;0.61;88.11
27712;BME280;2377;51.734;8.950;2023-02-16T07:34:16;98561.63;;;0.65;87.89
27712;BME280;2377;51.734;8.950;2023-02-16T07:36:43;98569.59;;;0.70;87.72
27712;BME280;2377;51.734;8.950;2023-02-16T07:39:10;98574.38;;;0.73;87.32
27712;BME280;2377;51.734;8.950;2023-02-16T07:41:38;98580.19;;;0.74;87.00
27712;BME280;2377;51.734;8.950;2023-02-16T07:44:06;98581.78;;;0.75;87.43
27712;BME280;2377;51.734;8.950;2023-02-16T07:46:33;98590.78;;;0.77;88.29
27712;BME280;2377;51.734;8.950;2023-02-16T07:49:01;98586.03;;;0.84;88.59
27712;BME280;2377;51.734;8.950;2023-02-16T07:51:30;98588.94;;;0.89;88.92
27712;BME280;2377;51.734;8.950;2023-02-16T07:53:59;98586.69;;;0.96;88.97
27712;BME280;2377;51.734;8.950;2023-02-16T07:56:30;98587.75;;;1.03;88.99
27712;BME280;2377;51.734;8.950;2023-02-16T07:59:00;98590.69;;;1.08;89.58
27712;BME280;2377;51.734;8.950;2023-02-16T08:01:29;98582.59;;;1.14;88.96
27712;BME280;2377;51.734;8.950;2023-02-16T08:03:57;98589.63;;;1.20;89.63
27712;BME280;2377;51.734;8.950;2023-02-16T08:06:24;98578.78;;;1.30;89.56
27712;BME280;2377;51.734;8.950;2023-02-16T08:08:52;98580.50;;;1.39;90.11
27712;BME280;2377;51.734;8.950;2023-02-16T08:11:23;98580.59;;;1.47;90.13
27712;BME280;2377;51.734;8.950;2023-02-16T08:13:51;98581.66;;;1.54;90.12
27712;BME280;2377;51.734;8.950;2023-02-16T08:16:21;98592.66;;;1.63;89.75
27712;BME280;2377;51.734;8.950;2023-02-16T08:18:50;98588.28;;;1.65;89.60
27712;BME280;2377;51.734;8.950;2023-02-16T08:21:20;98578.28;;;1.73;90.04
27712;BME280;2377;51.734;8.950;2023-02-16T08:23:53;98573.88;;;1.85;90.57
27712;BME280;2377;51.734;8.950;2023-02-16T08:26:24;98570.13;;;1.99;90.76
27712;BME280;2377;51.734;8.950;2023-02-16T08:28:52;98572.19;;;2.13;91.46
27712;BME280;2377;51.734;8.950;2023-02-16T08:31:24;98566.69;;;2.27;91.03
27712;BME280;2377;51.734;8.950;2023-02-16T08:33:55;98569.03;;;2.39;90.54
27712;BME280;2377;51.734;8.950;2023-02-16T08:36:26;98572.28;;;2.49;90.94
27712;BME280;2377;51.734;8.950;2023-02-16T08:38:58;98569.19;;;2.55;90.18
27712;BME280;2377;51.734;8.950;2023-02-16T08:41:31;98572.75;;;2.62;90.24
27712;BME280;2377;51.734;8.950;2023-02-16T08:44:00;98574.41;;;2.71;90.97
27712;BME280;2377;51.734;8.950;2023-02-16T08:46:28;98565.13;;;2.90;90.56
27712;BME280;2377;51.734;8.950;2023-02-16T08:48:58;98579.34;;;3.09;91.60
27712;BME280;2377;51.734;8.950;2023-02-16T08:51:27;98575.19;;;3.26;91.25
27712;BME280;2377;51.734;8.950;2023-02-16T08:53:57;98586.28;;;3.51;91.72
27712;BME280;2377;51.734;8.950;2023-02-16T08:56:25;98588.06;;;3.58;91.00
27712;BME280;2377;51.734;8.950;2023-02-16T08:58:54;98586.53;;;3.66;91.64
27712;BME280;2377;51.734;8.950;2023-02-16T09:01:21;98582.78;;;3.70;91.10
27712;BME280;2377;51.734;8.950;2023-02-16T09:03:49;98574.09;;;3.72;90.71
27712;BME280;2377;51.734;8.950;2023-02-16T09:06:20;98578.22;;;3.73;90.99
27712;BME280;2377;51.734;8.950;2023-02-16T09:08:50;98576.19;;;3.77;90.27
27712;BME280;2377;51.734;8.950;2023-02-16T09:11:19;98579.06;;;3.82;90.74
27712;BME280;2377;51.734;8.950;2023-02-16T09:13:47;98571.16;;;3.85;90.46
27712;BME280;2377;51.734;8.950;2023-02-16T09:16:17;98578.47;;;3.88;90.92
27712;BME280;2377;51.734;8.950;2023-02-16T09:18:45;98573.41;;;3.88;90.84
27712;BME280;2377;51.734;8.950;2023-02-16T09:21:15;98575.63;;;3.91;90.81
27712;BME280;2377;51.734;8.950;2023-02-16T09:23:46;98580.88;;;3.98;90.57
27712;BME280;2377;51.734;8.950;2023-02-16T09:26:14;98584.53;;;4.03;90.17
27712;BME280;2377;51.734;8.950;2023-02-16T09:28:43;98584.88;;;4.09;90.45
27712;BME280;2377;51.734;8.950;2023-02-16T09:31:12;98583.63;;;4.13;89.95
27712;BME280;2377;51.734;8.950;2023-02-16T09:33:42;98580.97;;;4.14;90.01
27712;BME280;2377;51.734;8.950;2023-02-16T09:36:11;98587.59;;;4.15;90.67
27712;BME280;2377;51.734;8.950;2023-02-16T09:38:39;98580.00;;;4.15;90.04
27712;BME280;2377;51.734;8.950;2023-02-16T09:41:22;98577.63;;;4.14;90.72
27712;BME280;2377;51.734;8.950;2023-02-16T09:43:57;98588.69;;;4.13;90.30
27712;BME280;2377;51.734;8.950;2023-02-16T09:46:29;98588.38;;;4.16;90.50
27712;BME280;2377;51.734;8.950;2023-02-16T09:48:59;98571.81;;;4.21;90.58
27712;BME280;2377;51.734;8.950;2023-02-16T09:51:34;98572.94;;;4.27;90.70
27712;BME280;2377;51.734;8.950;2023-02-16T09:54:19;98571.38;;;4.34;90.76
27712;BME280;2377;51.734;8.950;2023-02-16T09:56:59;98569.53;;;4.53;91.42
27712;BME280;2377;51.734;8.950;2023-02-16T09:59:46;98562.94;;;4.76;91.47
27712;BME280;2377;51.734;8.950;2023-02-16T10:02:43;98564.06;;;4.90;91.35
27712;BME280;2377;51.734;8.950;2023-02-16T10:05:28;98567.41;;;4.99;90.67
27712;BME280;2377;51.734;8.950;2023-02-16T10:08:02;98566.31;;;5.01;90.33
27712;BME280;2377;51.734;8.950;2023-02-16T10:10:46;98563.94;;;5.00;90.09
27712;BME280;2377;51.734;8.950;2023-02-16T10:13:26;98560.75;;;4.98;89.82
27712;BME280;2377;51.734;8.950;2023-02-16T10:16:03;98560.75;;;4.98;89.99
27712;BME280;2377;51.734;8.950;2023-02-16T10:18:35;98561.72;;;4.97;89.93
27712;BME280;2377;51.734;8.950;2023-02-16T10:21:13;98561.84;;;4.95;89.35
27712;BME280;2377;51.734;8.950;2023-02-16T10:23:47;98570.25;;;4.96;89.29
27712;BME280;2377;51.734;8.950;2023-02-16T10:26:21;98568.53;;;4.96;89.34
27712;BME280;2377;51.734;8.950;2023-02-16T10:28:55;98563.28;;;4.98;89.42
27712;BME280;2377;51.734;8.950;2023-02-16T10:31:33;98570.75;;;4.99;89.31
27712;BME280;2377;51.734;8.950;2023-02-16T10:34:16;98569.13;;;4.98;89.03
27712;BME280;2377;51.734;8.950;2023-02-16T10:37:05;98570.41;;;5.02;89.48
27712;BME280;2377;51.734;8.950;2023-02-16T10:39:40;98566.31;;;5.09;89.23
27712;BME280;2377;51.734;8.950;2023-02-16T10:42:20;98563.28;;;5.14;88.83
27712;BME280;2377;51.734;8.950;2023-02-16T10:45:03;98560.13;;;5.28;88.20
27712;BME280;2377;51.734;8.950;2023-02-16T10:47:36;98563.91;;;5.41;88.21
27712;BME280;2377;51.734;8.950;2023-02-16T10:50:04;98557.41;;;5.46;87.39
27712;BME280;2377;51.734;8.950;2023-02-16T10:52:36;98561.84;;;5.53;88.00
27712;BME280;2377;51.734;8.950;2023-02-16T10:55:06;98563.25;;;5.63;87.87
27712;BME280;2377;51.734;8.950;2023-02-16T10:57:33;98564.97;;;5.71;87.62
27712;BME280;2377;51.734;8.950;2023-02-16T11:00:07;98572.88;;;5.76;86.88
27712;BME280;2377;51.734;8.950;2023-02-16T11:02:40;98576.19;;;5.85;87.02
27712;BME280;2377;51.734;8.950;2023-02-16T11:05:34;98572.56;;;5.96;86.82
27712;BME280;2377;51.734;8.950;2023-02-16T11:08:05;98573.94;;;6.06;86.42
27712;BME280;2377;51.734;8.950;2023-02-16T11:10:44;98572.97;;;6.16;86.04
27712;BME280;2377;51.734;8.950;2023-02-16T11:13:30;98568.16;;;6.29;85.99
27712;BME280;2377;51.734;8.950;2023-02-16T11:16:08;98563.66;;;6.39;85.41
27712;BME280;2377;51.734;8.950;2023-02-16T11:18:40;98564.56;;;6.46;85.25
27712;BME280;2377;51.734;8.950;2023-02-16T11:21:10;98549.75;;;6.58;85.30
27712;BME280;2377;51.734;8.950;2023-02-16T11:23:39;98552.88;;;6.68;84.54
27712;BME280;2377;51.734;8.950;2023-02-16T11:26:20;98543.28;;;6.78;83.37
27712;BME280;2377;51.734;8.950;2023-02-16T11:28:52;98544.69;;;6.81;82.05
27712;BME280;2377;51.734;8.950;2023-02-16T11:31:27;98544.84;;;6.80;83.18
27712;BME280;2377;51.734;8.950;2023-02-16T11:33:59;98539.94;;;6.78;83.07
27712;BME280;2377;51.734;8.950;2023-02-16T11:36:33;98537.41;;;6.78;83.13
27712;BME280;2377;51.734;8.950;2023-02-16T11:39:12;98538.16;;;6.87;82.52
27712;BME280;2377;51.734;8.950;2023-02-16T11:41:44;98537.19;;;6.88;83.07
27712;BME280;2377;51.734;8.950;2023-02-16T11:44:30;98533.66;;;6.89;82.96
27712;BME280;2377;51.734;8.950;2023-02-16T11:47:03;98530.81;;;6.92;83.62
27712;BME280;2377;51.734;8.950;2023-02-16T11:49:34;98535.81;;;7.00;83.04
27712;BME280;2377;51.734;8.950;2023-02-16T11:52:23;98530.06;;;7.06;83.08
27712;BME280;2377;51.734;8.950;2023-02-16T11:54:54;98534.00;;;7.09;82.65
27712;BME280;2377;51.734;8.950;2023-02-16T11:57:25;98527.44;;;7.14;82.91
27712;BME280;2377;51.734;8.950;2023-02-16T11:59:54;98528.31;;;7.22;83.02
27712;BME280;2377;51.734;8.950;2023-02-16T12:02:57;98531.50;;;7.24;82.51
27712;BME280;2377;51.734;8.950;2023-02-16T12:05:40;98524.75;;;7.31;82.56
27712;BME280;2377;51.734;8.950;2023-02-16T12:08:36;98529.94;;;7.37;83.40
27712;BME280;2377;51.734;8.950;2023-02-16T12:11:22;98532.13;;;7.40;82.13
27712;BME280;2377;51.734;8.950;2023-02-16T12:14:06;98529.25;;;7.44;81.70
27712;BME280;2377;51.734;8.950;2023-02-16T12:16:51;98522.56;;;7.43;81.60
27712;BME280;2377;51.734;8.950;2023-02-16T12:19:38;98514.94;;;7.43;81.13
27712;BME280;2377;51.734;8.950;2023-02-16T12:22:22;98519.50;;;7.47;82.02
27712;BME280;2377;51.734;8.950;2023-02-16T12:25:04;98520.22;;;7.56;82.00
27712;BME280;2377;51.734;8.950;2023-02-16T12:27:44;98525.41;;;7.62;81.56
27712;BME280;2377;51.734;8.950;2023-02-16T12:30:32;98527.69;;;7.72;81.73
27712;BME280;2377;51.734;8.950;2023-02-16T12:33:21;98529.53;;;7.78;81.76
27712;BME280;2377;51.734;8.950;2023-02-16T12:36:27;98520.22;;;7.86;82.06
27712;BME280;2377;51.734;8.950;2023-02-16T12:39:11;98522.50;;;7.95;80.57
27712;BME280;2377;51.734;8.950;2023-02-16T12:41:57;98513.97;;;8.03;80.41
27712;BME280;2377;51.734;8.950;2023-02-16T12:44:36;98514.06;;;8.10;80.30
27712;BME280;2377;51.734;8.950;2023-02-16T12:47:13;98511.13;;;8.13;80.00
27712;BME280;2377;51.734;8.950;2023-02-16T12:49:53;98506.50;;;8.16;80.18
27712;BME280;2377;51.734;8.950;2023-02-16T12:52:32;98505.97;;;8.21;79.47
27712;BME280;2377;51.734;8.950;2023-02-16T12:55:17;98514.00;;;8.24;79.46
27712;BME280;2377;51.734;8.950;2023-02-16T12:57:54;98513.31;;;8.31;80.52
27712;BME280;2377;51.734;8.950;2023-02-16T13:00:35;98503.53;;;8.34;79.99
27712;BME280;2377;51.734;8.950;2023-02-16T13:03:20;98505.13;;;8.35;78.63
27712;BME280;2377;51.734;8.950;2023-02-16T13:06:01;98503.97;;;8.38;79.35
27712;BME280;2377;51.734;8.950;2023-02-16T13:08:40;98499.53;;;8.40;79.87
27712;BME280;2377;51.734;8.950;2023-02-16T13:11:19;98496.59;;;8.43;80.74
27712;BME280;2377;51.734;8.950;2023-02-16T13:13:50;98488.41;;;8.48;79.62
27712;BME280;2377;51.734;8.950;2023-02-16T13:16:26;98490.41;;;8.52;80.14
27712;BME280;2377;51.734;8.950;2023-02-16T13:18:58;98494.78;;;8.58;79.79
27712;BME280;2377;51.734;8.950;2023-02-16T13:22:03;98485.41;;;8.59;79.33
27712;BME280;2377;51.734;8.950;2023-02-16T13:24:52;98482.28;;;8.63;79.74
27712;BME280;2377;51.734;8.950;2023-02-16T13:27:36;98486.66;;;8.70;79.72
27712;BME280;2377;51.734;8.950;2023-02-16T13:30:49;98480.22;;;8.74;78.87
27712;BME280;2377;51.734;8.950;2023-02-16T13:33:42;98476.34;;;8.78;79.17
27712;BME280;2377;51.734;8.950;2023-02-16T13:39:48;98469.09;;;8.81;79.07
27712;BME280;2377;51.734;8.950;2023-02-16T13:43:09;98458.97;;;8.88;79.83
27712;BME280;2377;51.734;8.950;2023-02-16T13:45:42;98448.03;;;8.94;79.89
27712;BME280;2377;51.734;8.950;2023-02-16T13:48:19;98449.22;;;8.98;79.64
27712;BME280;2377;51.734;8.950;2023-02-16T13:50:56;98457.91;;;9.04;79.48
27712;BME280;2377;51.734;8.950;2023-02-16T13:53:29;98453.41;;;9.06;79.24
27712;BME280;2377;51.734;8.950;2023-02-16T13:56:23;98451.66;;;9.06;79.48
27712;BME280;2377;51.734;8.950;2023-02-16T14:02:10;98456.41;;;9.16;79.99
27712;BME280;2377;51.734;8.950;2023-02-16T14:05:00;98453.47;;;9.19;80.35
27712;BME280;2377;51.734;8.950;2023-02-16T14:07:33;98447.81;;;9.24;80.70